createdAt,value
2022-12-08T00:00:53.637Z,63.54
2022-12-08T00:03:25.935Z,63.44
2022-12-08T00:06:16.231Z,63.52
2022-12-08T00:09:06.243Z,63.24
2022-12-08T00:11:39.683Z,63.04
2022-12-08T00:14:11.905Z,63.39
2022-12-08T00:16:44.021Z,63.18
2022-12-08T00:19:16.352Z,63.32
2022-12-08T00:21:49.047Z,63.07
2022-12-08T00:24:21.907Z,63.17
2022-12-08T00:26:53.851Z,62.79
2022-12-08T00:29:26.241Z,62.72
2022-12-08T00:31:58.556Z,62.83
2022-12-08T00:34:31.446Z,62.83
2022-12-08T00:37:03.329Z,62.91
2022-12-08T00:39:35.736Z,62.92
2022-12-08T00:42:13.747Z,62.91
2022-12-08T00:44:48.059Z,63.22
2022-12-08T00:47:24.623Z,63.08
2022-12-08T00:49:53.640Z,62.84
2022-12-08T00:52:25.767Z,62.98
2022-12-08T00:54:57.917Z,62.89
2022-12-08T00:57:29.804Z,63.09
2022-12-08T01:00:02.495Z,62.98
2022-12-08T01:02:36.058Z,63.20
2022-12-08T01:05:08.466Z,63.21
2022-12-08T01:07:40.601Z,63.09
2022-12-08T01:10:12.939Z,62.82
2022-12-08T01:12:45.278Z,62.76
2022-12-08T01:15:17.392Z,62.77
2022-12-08T01:17:49.303Z,62.73
2022-12-08T01:20:21.331Z,62.80
2022-12-08T01:22:53.280Z,62.88
2022-12-08T01:25:25.434Z,62.75
2022-12-08T01:27:57.974Z,62.71
2022-12-08T01:30:30.204Z,62.75
2022-12-08T01:33:02.723Z,62.88
2022-12-08T01:35:36.117Z,62.95
2022-12-08T01:38:08.305Z,62.96
2022-12-08T01:40:40.270Z,62.95
2022-12-08T01:43:20.458Z,63.05
2022-12-08T01:45:52.529Z,63.25
2022-12-08T01:48:27.567Z,63.21
2022-12-08T01:51:00.123Z,63.50
2022-12-08T01:53:33.933Z,63.20
2022-12-08T01:56:12.549Z,63.17
2022-12-08T01:58:47.523Z,63.03
2022-12-08T02:01:19.553Z,63.32
2022-12-08T02:04:03.058Z,63.31
2022-12-08T02:06:37.979Z,63.42
2022-12-08T02:09:10.219Z,63.49
2022-12-08T02:11:42.563Z,63.33
2022-12-08T02:14:15.724Z,63.25
2022-12-08T02:16:50.690Z,63.49
2022-12-08T02:19:44.648Z,63.65
2022-12-08T02:22:22.668Z,63.66
2022-12-08T02:25:00.318Z,63.46
2022-12-08T02:28:08.925Z,63.40
2022-12-08T02:31:07.710Z,63.64
2022-12-08T02:33:48.869Z,63.70
2022-12-08T02:36:51.947Z,63.64
2022-12-08T02:39:38.854Z,63.73
2022-12-08T02:42:13.966Z,63.53
2022-12-08T02:44:48.863Z,63.55
2022-12-08T02:47:23.826Z,63.41
2022-12-08T02:49:57.670Z,63.14
2022-12-08T02:52:32.743Z,63.13
2022-12-08T02:55:10.243Z,63.37
2022-12-08T02:57:54.531Z,63.68
2022-12-08T03:00:29.391Z,63.73
2022-12-08T03:03:13.071Z,63.50
2022-12-08T03:06:13.435Z,63.73
2022-12-08T03:08:54.169Z,63.73
2022-12-08T03:11:47.440Z,63.77
2022-12-08T03:14:21.008Z,63.86
2022-12-08T03:16:56.041Z,63.99
2022-12-08T03:19:33.666Z,64.02
2022-12-08T03:22:07.728Z,64.08
2022-12-08T03:24:42.060Z,63.96
2022-12-08T03:27:23.025Z,64.08
2022-12-08T03:29:56.789Z,63.91
2022-12-08T03:32:29.501Z,63.97
2022-12-08T03:35:04.124Z,63.71
2022-12-08T03:37:39.169Z,63.48
2022-12-08T03:40:15.132Z,63.39
2022-12-08T03:42:47.283Z,63.33
2022-12-08T03:45:19.234Z,63.49
2022-12-08T03:47:51.437Z,63.48
2022-12-08T03:50:24.380Z,63.39
2022-12-08T03:52:56.505Z,63.50
2022-12-08T03:55:28.857Z,63.66
2022-12-08T03:58:01.289Z,63.68
2022-12-08T04:00:34.599Z,63.97
2022-12-08T04:03:07.084Z,64.15
2022-12-08T04:05:39.348Z,64.26
2022-12-08T04:08:11.785Z,64.36
2022-12-08T04:10:44.412Z,64.41
2022-12-08T04:13:17.080Z,64.46
2022-12-08T04:15:49.942Z,64.44
2022-12-08T04:18:23.149Z,64.39
2022-12-08T04:20:55.347Z,64.75
2022-12-08T04:23:27.403Z,64.76
2022-12-08T04:25:59.478Z,64.96
2022-12-08T04:28:32.929Z,65.04
2022-12-08T04:31:05.530Z,65.34
2022-12-08T04:33:37.993Z,65.53
2022-12-08T04:36:11.135Z,65.81
2022-12-08T04:38:44.031Z,65.95
2022-12-08T04:41:16.336Z,66.16
2022-12-08T04:43:49.023Z,66.18
2022-12-08T04:46:22.657Z,66.46
2022-12-08T04:48:54.920Z,66.55
2022-12-08T04:51:27.635Z,66.71
2022-12-08T04:53:59.924Z,66.66
2022-12-08T04:56:32.688Z,66.91
2022-12-08T04:59:08.376Z,67.06
2022-12-08T05:01:41.150Z,67.17
2022-12-08T05:04:13.987Z,67.27
2022-12-08T05:06:47.709Z,67.67
2022-12-08T05:09:20.554Z,67.43
2022-12-08T05:11:53.876Z,67.98
2022-12-08T05:14:27.432Z,67.89
2022-12-08T05:17:02.567Z,68.08
2022-12-08T05:19:34.888Z,68.04
2022-12-08T05:22:08.068Z,68.25
2022-12-08T05:24:47.177Z,68.39
2022-12-08T05:27:16.631Z,68.13
2022-12-08T05:29:50.320Z,68.29
2022-12-08T05:32:24.036Z,68.61
2022-12-08T05:34:57.207Z,68.89
2022-12-08T05:37:30.705Z,68.81
2022-12-08T05:40:05.704Z,69.02
2022-12-08T05:42:40.580Z,68.94
2022-12-08T05:45:13.738Z,68.84
2022-12-08T05:47:46.135Z,68.88
2022-12-08T05:50:19.747Z,68.93
2022-12-08T05:52:52.842Z,68.95
2022-12-08T05:55:25.320Z,68.91
2022-12-08T05:57:57.695Z,68.91
2022-12-08T06:00:30.370Z,69.11
2022-12-08T06:03:04.425Z,69.04
2022-12-08T06:05:38.783Z,69.29
2022-12-08T06:08:12.704Z,68.96
2022-12-08T06:10:46.733Z,68.58
2022-12-08T06:13:20.402Z,68.57
2022-12-08T06:15:53.183Z,68.57
2022-12-08T06:18:32.473Z,68.32
2022-12-08T06:21:06.890Z,67.97
2022-12-08T06:23:40.359Z,68.21
2022-12-08T06:26:15.291Z,68.53
2022-12-08T06:28:47.815Z,68.70
2022-12-08T06:31:23.971Z,68.37
2022-12-08T06:33:57.877Z,68.74
2022-12-08T06:36:29.761Z,68.87
2022-12-08T06:39:02.567Z,69.00
2022-12-08T06:41:39.084Z,68.59
2022-12-08T06:44:11.701Z,68.53
2022-12-08T06:46:46.110Z,68.85
2022-12-08T06:49:18.425Z,69.18
2022-12-08T06:51:51.773Z,69.50
2022-12-08T06:54:25.444Z,69.22
2022-12-08T06:56:57.759Z,69.06
2022-12-08T06:59:30.913Z,68.51
2022-12-08T07:02:03.741Z,69.12
2022-12-08T07:04:36.260Z,68.74
2022-12-08T07:07:09.432Z,68.71
2022-12-08T07:09:41.555Z,68.55
2022-12-08T07:12:14.262Z,69.00
2022-12-08T07:14:47.152Z,69.03
2022-12-08T07:17:19.690Z,69.16
2022-12-08T07:19:51.706Z,69.40
2022-12-08T07:22:24.304Z,68.42
2022-12-08T07:24:57.558Z,67.76
2022-12-08T07:27:30.679Z,67.53
2022-12-08T07:30:03.358Z,68.74
2022-12-08T07:32:36.144Z,69.23
2022-12-08T07:35:09.916Z,69.71
2022-12-08T07:37:43.110Z,69.99
2022-12-08T07:40:16.237Z,70.54
2022-12-08T07:42:48.916Z,70.48
2022-12-08T07:45:25.663Z,70.63
2022-12-08T07:47:56.147Z,69.99
2022-12-08T07:50:30.268Z,69.58
2022-12-08T07:53:02.568Z,69.84
2022-12-08T07:55:35.723Z,70.01
2022-12-08T07:58:09.709Z,69.68
2022-12-08T08:00:42.570Z,69.81
2022-12-08T08:03:14.777Z,69.97
2022-12-08T08:05:49.347Z,69.01
2022-12-08T08:08:21.917Z,69.12
2022-12-08T08:10:54.685Z,69.21
2022-12-08T08:13:28.341Z,69.22
2022-12-08T08:16:09.163Z,68.41
2022-12-08T08:18:42.153Z,67.38
2022-12-08T08:21:43.668Z,67.83
2022-12-08T08:23:50.054Z,67.26
2022-12-08T08:26:22.625Z,67.78
2022-12-08T08:28:54.725Z,67.62
2022-12-08T08:31:28.994Z,68.43
2022-12-08T08:34:04.557Z,68.93
2022-12-08T08:36:37.787Z,69.48
2022-12-08T08:39:10.389Z,69.99
2022-12-08T08:41:43.770Z,70.24
2022-12-08T08:44:16.923Z,69.87
2022-12-08T08:46:49.927Z,69.46
2022-12-08T08:49:22.663Z,69.15
2022-12-08T08:51:54.984Z,68.75
2022-12-08T08:54:28.896Z,69.01
2022-12-08T08:57:03.600Z,69.25
2022-12-08T08:59:35.569Z,69.78
2022-12-08T09:02:08.609Z,69.50
2022-12-08T09:04:41.652Z,69.26
2022-12-08T09:07:14.325Z,69.45
2022-12-08T09:09:46.985Z,69.49
2022-12-08T09:12:20.130Z,69.93
2022-12-08T09:14:54.953Z,70.40
2022-12-08T09:17:27.424Z,70.76
2022-12-08T09:20:02.032Z,70.42
2022-12-08T09:22:34.648Z,70.44
2022-12-08T09:25:08.044Z,70.60
2022-12-08T09:27:41.077Z,70.67
2022-12-08T09:30:13.921Z,70.66
2022-12-08T09:32:46.682Z,70.94
2022-12-08T09:35:19.671Z,71.19
2022-12-08T09:37:52.486Z,71.61
2022-12-08T09:40:27.304Z,71.39
2022-12-08T09:43:26.581Z,71.00
2022-12-08T09:45:59.929Z,70.65
2022-12-08T09:48:35.309Z,70.04
2022-12-08T09:51:10.227Z,69.77
2022-12-08T09:53:48.375Z,69.23
2022-12-08T09:56:36.395Z,68.89
2022-12-08T09:59:11.728Z,68.53
2022-12-08T10:01:44.443Z,68.81
2022-12-08T10:04:19.369Z,68.94
2022-12-08T10:07:09.191Z,69.30
2022-12-08T10:09:56.504Z,69.68
2022-12-08T10:12:49.632Z,70.36
2022-12-08T10:15:47.744Z,70.86
2022-12-08T10:18:26.175Z,70.96
2022-12-08T10:21:01.330Z,70.95
2022-12-08T10:23:39.757Z,71.39
2022-12-08T10:26:17.970Z,71.49
2022-12-08T10:28:51.571Z,71.80
2022-12-08T10:31:26.787Z,71.56
2022-12-08T10:34:04.531Z,71.77
2022-12-08T10:36:51.874Z,72.16
2022-12-08T10:39:37.549Z,72.05
2022-12-08T10:42:12.906Z,72.04
2022-12-08T10:45:05.971Z,72.17
2022-12-08T10:47:45.508Z,72.12
2022-12-08T10:50:33.272Z,72.60
2022-12-08T10:53:14.551Z,72.31
2022-12-08T10:55:49.739Z,72.57
2022-12-08T10:58:42.228Z,72.43
2022-12-08T11:01:20.053Z,72.23
2022-12-08T11:03:55.031Z,72.62
2022-12-08T11:06:35.817Z,72.60
2022-12-08T11:09:22.432Z,72.23
2022-12-08T11:12:16.800Z,72.51
2022-12-08T11:15:02.219Z,72.79
2022-12-08T11:17:44.025Z,72.77
2022-12-08T11:20:21.709Z,72.65
2022-12-08T11:22:56.717Z,72.53
2022-12-08T11:25:30.174Z,72.49
2022-12-08T11:28:03.875Z,72.79
2022-12-08T11:30:43.006Z,72.83
2022-12-08T11:33:26.475Z,72.24
2022-12-08T11:36:10.495Z,72.15
2022-12-08T11:38:46.949Z,72.33
2022-12-08T11:41:22.382Z,72.26
2022-12-08T11:44:06.969Z,72.42
2022-12-08T11:46:54.027Z,72.42
2022-12-08T11:49:29.298Z,72.48
2022-12-08T11:52:12.987Z,72.58
2022-12-08T11:54:48.812Z,73.30
2022-12-08T11:57:24.376Z,72.69
2022-12-08T11:59:59.688Z,72.51
2022-12-08T12:02:35.328Z,72.54
2022-12-08T12:05:47.646Z,72.31
2022-12-08T12:08:30.100Z,72.76
2022-12-08T12:11:46.848Z,73.51
2022-12-08T12:14:44.960Z,73.39
2022-12-08T12:17:51.788Z,72.98
2022-12-08T12:20:33.666Z,73.19
2022-12-08T12:23:12.855Z,73.16
2022-12-08T12:26:00.731Z,73.65
2022-12-08T12:28:44.283Z,73.44
2022-12-08T12:31:20.029Z,73.70
2022-12-08T12:33:54.672Z,73.80
2022-12-08T12:36:27.414Z,74.56
2022-12-08T12:39:03.764Z,74.69
2022-12-08T12:41:51.109Z,74.58
2022-12-08T12:44:32.944Z,74.67
2022-12-08T12:47:08.977Z,74.71
2022-12-08T12:49:46.003Z,75.06
2022-12-08T12:52:22.669Z,74.60
2022-12-08T12:55:00.523Z,74.82
2022-12-08T12:57:54.110Z,74.99
2022-12-08T13:00:28.589Z,74.81
2022-12-08T13:03:01.311Z,74.96
2022-12-08T13:05:36.938Z,75.31
2022-12-08T13:08:12.547Z,75.38
2022-12-08T13:10:50.563Z,75.33
2022-12-08T13:13:24.647Z,75.32
2022-12-08T13:16:12.728Z,75.51
2022-12-08T13:18:53.778Z,74.79
2022-12-08T13:21:28.902Z,74.86
2022-12-08T13:24:18.168Z,75.33
2022-12-08T13:27:08.789Z,75.21
2022-12-08T13:29:41.620Z,75.14
2022-12-08T13:32:16.760Z,74.80
2022-12-08T13:34:54.999Z,74.55
2022-12-08T13:37:29.260Z,74.64
2022-12-08T13:40:04.999Z,74.45
2022-12-08T13:42:52.440Z,74.29
2022-12-08T13:46:12.141Z,74.40
2022-12-08T13:49:03.303Z,74.33
2022-12-08T13:57:08.486Z,74.54
2022-12-08T13:59:31.087Z,74.41
2022-12-08T14:02:17.756Z,74.39
2022-12-08T14:07:24.696Z,75.25
2022-12-08T14:09:57.181Z,75.06
2022-12-08T14:12:32.283Z,75.04
2022-12-08T14:15:07.384Z,74.95
2022-12-08T14:17:41.075Z,74.78
2022-12-08T14:20:22.278Z,75.12
2022-12-08T14:22:56.290Z,74.60
2022-12-08T14:25:32.037Z,74.43
2022-12-08T14:28:06.484Z,74.40
2022-12-08T14:30:40.591Z,74.77
2022-12-08T14:33:18.758Z,74.46
2022-12-08T14:35:55.025Z,74.34
2022-12-08T14:38:28.535Z,75.78
2022-12-08T14:41:10.310Z,76.18
2022-12-08T14:43:43.246Z,76.50
2022-12-08T14:46:25.515Z,76.43
2022-12-08T14:48:59.829Z,76.24
2022-12-08T14:51:34.287Z,76.49
2022-12-08T14:54:15.545Z,76.86
2022-12-08T14:56:53.172Z,76.71
2022-12-08T14:59:33.722Z,77.16
2022-12-08T15:02:22.116Z,76.67
2022-12-08T15:05:06.528Z,76.93
2022-12-08T15:07:45.639Z,77.23
2022-12-08T15:10:21.882Z,77.29
2022-12-08T15:13:07.583Z,76.97
2022-12-08T15:15:58.031Z,77.43
2022-12-08T15:18:42.723Z,77.06
2022-12-08T15:21:15.189Z,76.85
2022-12-08T15:23:52.236Z,76.84
2022-12-08T15:26:27.648Z,76.98
2022-12-08T15:29:02.068Z,76.71
2022-12-08T15:31:35.014Z,76.77
2022-12-08T15:34:08.514Z,76.17
2022-12-08T15:36:42.761Z,75.80
2022-12-08T15:39:35.092Z,75.65
2022-12-08T15:42:10.438Z,75.61
2022-12-08T15:44:43.715Z,75.56
2022-12-08T15:47:24.615Z,76.12
2022-12-08T15:49:57.102Z,76.12
2022-12-08T15:52:29.384Z,76.13
2022-12-08T15:55:02.885Z,75.74
2022-12-08T15:58:30.919Z,75.53
2022-12-08T16:00:30.611Z,75.77
2022-12-08T16:03:18.392Z,75.66
2022-12-08T16:05:44.208Z,75.44
2022-12-08T16:08:04.575Z,75.15
2022-12-08T16:11:00.710Z,75.44
2022-12-08T16:13:56.118Z,75.49
2022-12-08T16:16:01.340Z,76.50
2022-12-08T16:18:38.494Z,75.76
2022-12-08T16:21:31.634Z,75.56
2022-12-08T16:23:47.753Z,75.29
2022-12-08T16:28:57.571Z,75.42
2022-12-08T16:31:30.684Z,76.06
2022-12-08T16:34:02.972Z,75.66
2022-12-08T16:36:36.145Z,75.58
2022-12-08T16:39:09.346Z,75.89
2022-12-08T16:41:59.231Z,75.67
2022-12-08T16:44:31.324Z,75.63
2022-12-08T16:47:06.401Z,75.47
2022-12-08T16:49:39.880Z,75.50
2022-12-08T16:52:12.640Z,76.01
2022-12-08T16:54:45.917Z,75.97
2022-12-08T16:57:18.246Z,75.90
2022-12-08T16:59:50.458Z,76.15
2022-12-08T17:02:23.266Z,76.11
2022-12-08T17:04:55.514Z,76.65
2022-12-08T17:07:28.076Z,76.89
2022-12-08T17:10:00.683Z,76.40
2022-12-08T17:12:35.444Z,76.21
2022-12-08T17:15:08.069Z,76.37
2022-12-08T17:17:40.179Z,77.21
2022-12-08T17:20:15.121Z,76.53
2022-12-08T17:22:47.737Z,76.23
2022-12-08T17:25:19.647Z,76.08
2022-12-08T17:27:51.910Z,76.27
2022-12-08T17:30:24.366Z,76.35
2022-12-08T17:32:58.800Z,76.69
2022-12-08T17:35:31.969Z,76.87
2022-12-08T17:38:04.158Z,76.54
2022-12-08T17:40:36.168Z,76.68
2022-12-08T17:43:08.841Z,76.60
2022-12-08T17:45:49.368Z,76.63
2022-12-08T17:48:21.441Z,76.61
2022-12-08T17:50:54.482Z,76.94
2022-12-08T17:53:26.659Z,76.79
2022-12-08T17:56:00.206Z,76.52
2022-12-08T17:58:32.987Z,76.54
2022-12-08T18:01:10.780Z,76.51
2022-12-08T18:03:43.084Z,76.88
2022-12-08T18:06:15.236Z,77.06
2022-12-08T18:08:47.401Z,76.90
2022-12-08T18:11:21.120Z,76.68
2022-12-08T18:13:52.905Z,76.71
2022-12-08T18:16:26.222Z,77.90
2022-12-08T18:18:58.570Z,77.21
2022-12-08T18:21:30.920Z,77.13
2022-12-08T18:24:03.533Z,77.08
2022-12-08T18:26:36.106Z,76.83
2022-12-08T18:29:08.394Z,76.79
2022-12-08T18:31:40.857Z,76.80
2022-12-08T18:34:12.864Z,76.61
2022-12-08T18:36:44.940Z,76.56
2022-12-08T18:39:29.047Z,76.87
2022-12-08T18:42:04.964Z,77.13
2022-12-08T18:44:38.015Z,77.45
2022-12-08T18:47:10.303Z,77.41
2022-12-08T18:49:42.811Z,77.26
2022-12-08T18:52:17.824Z,76.95
2022-12-08T18:55:05.815Z,77.07
2022-12-08T18:57:22.751Z,77.21
2022-12-08T18:59:55.303Z,76.99
2022-12-08T19:02:29.470Z,77.07
2022-12-08T19:05:01.805Z,77.43
2022-12-08T19:07:34.981Z,77.18
2022-12-08T19:10:08.161Z,77.41
2022-12-08T19:12:40.745Z,77.46
2022-12-08T19:15:13.598Z,77.77
2022-12-08T19:17:45.584Z,77.56
2022-12-08T19:20:17.781Z,77.59
2022-12-08T19:22:50.136Z,77.48
2022-12-08T19:25:22.736Z,77.50
2022-12-08T19:27:55.249Z,77.39
2022-12-08T19:30:27.247Z,77.35
2022-12-08T19:32:59.869Z,77.57
2022-12-08T19:35:31.828Z,77.58
2022-12-08T19:38:04.235Z,77.36
2022-12-08T19:40:54.098Z,77.32
2022-12-08T19:43:33.614Z,77.09
2022-12-08T19:46:06.022Z,77.38
2022-12-08T19:48:37.966Z,77.36
2022-12-08T19:51:10.726Z,77.27
2022-12-08T19:53:47.301Z,77.40
2022-12-08T19:56:16.856Z,77.44
2022-12-08T19:58:48.871Z,77.22
2022-12-08T20:01:21.055Z,77.29
2022-12-08T20:03:53.147Z,77.27
2022-12-08T20:06:26.368Z,77.22
2022-12-08T20:08:58.639Z,77.17
2022-12-08T20:11:30.916Z,77.11
2022-12-08T20:14:03.079Z,76.97
2022-12-08T20:16:35.296Z,77.05
2022-12-08T20:19:07.353Z,77.16
2022-12-08T20:21:41.588Z,77.12
2022-12-08T20:24:14.006Z,77.15
2022-12-08T20:26:46.490Z,77.17
2022-12-08T20:29:18.879Z,76.96
2022-12-08T20:31:51.192Z,77.09
2022-12-08T20:34:23.284Z,76.94
2022-12-08T20:36:56.457Z,77.01
2022-12-08T20:39:28.962Z,76.96
2022-12-08T20:42:01.062Z,77.01
2022-12-08T20:44:33.472Z,76.90
2022-12-08T20:47:05.395Z,76.87
2022-12-08T20:49:37.563Z,76.79
2022-12-08T20:52:10.089Z,76.87
2022-12-08T20:54:42.224Z,76.79
2022-12-08T20:57:14.225Z,76.69
2022-12-08T20:59:46.638Z,76.84
2022-12-08T21:02:18.964Z,76.88
2022-12-08T21:04:51.619Z,76.72
2022-12-08T21:07:23.857Z,76.88
2022-12-08T21:09:56.035Z,76.95
2022-12-08T21:12:28.134Z,76.78
2022-12-08T21:15:00.367Z,76.96
2022-12-08T21:17:33.026Z,76.88
2022-12-08T21:20:06.656Z,77.01
2022-12-08T21:22:40.588Z,76.76
2022-12-08T21:25:12.924Z,76.81
2022-12-08T21:27:45.132Z,76.79
2022-12-08T21:30:17.210Z,76.96
2022-12-08T21:32:49.637Z,76.90
2022-12-08T21:35:22.510Z,76.73
2022-12-08T21:37:54.949Z,76.78
2022-12-08T21:40:27.728Z,76.71
2022-12-08T21:42:59.943Z,76.75
2022-12-08T21:45:35.811Z,76.72
2022-12-08T21:48:11.678Z,76.64
2022-12-08T21:50:42.968Z,76.51
2022-12-08T21:53:15.044Z,76.51
2022-12-08T21:55:47.416Z,76.41
2022-12-08T21:58:19.838Z,76.56
2022-12-08T22:00:52.420Z,76.47
2022-12-08T22:03:25.233Z,76.41
2022-12-08T22:05:57.618Z,76.44
2022-12-08T22:08:30.207Z,76.33
2022-12-08T22:11:02.816Z,76.43
2022-12-08T22:13:37.020Z,76.24
2022-12-08T22:16:12.071Z,76.20
2022-12-08T22:18:44.292Z,76.21
2022-12-08T22:21:18.802Z,76.21
2022-12-08T22:23:51.618Z,76.17
2022-12-08T22:26:23.809Z,76.24
2022-12-08T22:28:55.974Z,76.30
2022-12-08T22:31:28.490Z,76.35
2022-12-08T22:34:00.986Z,76.46
2022-12-08T22:36:33.264Z,76.46
2022-12-08T22:39:05.935Z,76.46
2022-12-08T22:41:38.237Z,76.47
2022-12-08T22:44:10.694Z,76.50
2022-12-08T22:46:42.938Z,76.53
2022-12-08T22:49:14.996Z,76.62
2022-12-08T22:51:47.325Z,76.59
2022-12-08T22:54:19.615Z,76.56
2022-12-08T22:56:51.949Z,76.50
2022-12-08T22:59:23.975Z,76.44
2022-12-08T23:01:56.104Z,76.39
2022-12-08T23:04:28.354Z,76.35
2022-12-08T23:07:00.582Z,76.37
2022-12-08T23:09:32.695Z,76.32
2022-12-08T23:12:04.887Z,76.35
2022-12-08T23:14:37.308Z,76.33
2022-12-08T23:17:09.393Z,76.28
2022-12-08T23:19:41.586Z,76.25
2022-12-08T23:22:13.958Z,76.08
2022-12-08T23:24:46.024Z,76.08
2022-12-08T23:27:18.260Z,76.07
2022-12-08T23:29:50.423Z,76.15
2022-12-08T23:32:22.471Z,76.21
2022-12-08T23:34:54.707Z,76.12
2022-12-08T23:37:27.456Z,76.16
2022-12-08T23:39:59.910Z,76.14
2022-12-08T23:42:33.184Z,76.05
2022-12-08T23:45:07.739Z,76.03
2022-12-08T23:47:39.947Z,76.01
2022-12-08T23:50:12.945Z,76.08
2022-12-08T23:52:45.549Z,76.02
2022-12-08T23:55:18.384Z,76.01
2022-12-08T23:57:50.638Z,75.98
